• Join FlightAware (Why Join?)
  • Login
  • US Flag 
08:06PM EDT


 

Airport Tracker/Info


-or-


 

Live Flight TrackerFlight Track Log ✈ SKW6445 ✈ 03-May-2012 ✈ KIAH - KABQ

Flight Track Log - Related Links

Times and Time Zones

All times are in EDT time to prevent confusion due to time zone crossing. See the SKW6445 flight status page for this flight to view local times or setup timezone preferences in your user account.

Time Position Orientation Groundspeed Altitude Reporting Facility
EDT Latitude Longitude Course Direction KTS MPH feet Rate Location/Type
05:01PM 29.9561 -95.3481 204° Southwest 159 183 800  Level Houston Center
05:02PM 29.9347 -95.3592 237° Southwest 195 224 1,700 1,980 Climbing Houston Center
05:03PM 29.8997 -95.4203 229° Southwest 229 264 3,900 2,040 Climbing Houston Center
05:04PM 29.8542 -95.4808 245° Southwest 259 298 5,900 1,620 Climbing Houston Center
05:05PM 29.8069 -95.5986 311° West 281 323 8,100 1,920 Climbing Houston Center
05:06PM 29.8653 -95.6753 301° West 257 296 10,900 2,580 Climbing Houston Center
05:07PM 29.9086 -95.7583 301° West 271 312 13,300 1,920 Climbing Houston Center
05:08PM 29.9542 -95.8464 299° West 295 339 14,800 1,440 Climbing Houston Center
05:09PM 30.0031 -95.9467 304° West 323 372 16,200 1,800 Climbing Houston Center
05:10PM 30.0606 -96.0450 285° West 341 392 18,400 1,800 Climbing Houston Center
05:11PM 30.0881 -96.1614 280° West 352 405 19,800 1,440 Climbing Houston Center
05:12PM 30.1069 -96.2822 280° West 374 430 21,300 1,440 Climbing Houston Center
05:13PM 30.1256 -96.4056 279° West 386 444 22,700 1,380 Climbing Houston Center
05:14PM 30.1419 -96.5311 279° West 394 453 24,100 1,260 Climbing Houston Center
05:15PM 30.1586 -96.6469 280° West 404 465 25,300 1,140 Climbing Houston Center
05:16PM 30.1786 -96.7800 280° West 416 479 26,400 1,200 Climbing Houston Center
05:17PM 30.1989 -96.9083 279° West 416 479 27,700 1,140 Climbing Houston Center
05:18PM 30.2183 -97.0464 279° West 421 484 28,700 960 Climbing Houston Center
05:19PM 30.2358 -97.1817 280° West 429 494 29,700 900 Climbing Houston Center
05:20PM 30.2589 -97.3297 280° West 429 494 30,500 720 Climbing Houston Center
05:21PM 30.2803 -97.4678 279° West 434 499 31,200 1,140 Climbing Houston Center
05:22PM 30.2975 -97.6011 279° West 434 499 32,800 1,500 Climbing Houston Center
05:23PM 30.3167 -97.7344 286° West 429 494 34,200 1,320 Climbing Houston Center
05:24PM 30.3483 -97.8589 289° West 414 476 35,500 1,200 Climbing Houston Center
05:25PM 30.3811 -97.9667 286° West 399 459 36,700 1,200 Climbing Houston Center
05:26PM 30.4128 -98.0914 287° West 385 443 38,000 600 Climbing Houston Center
05:27PM 30.4411 -98.1967 288° West 385 443 38,000  Level Houston Center
05:28PM 30.4750 -98.3144 288° West 385 443 38,000  Level Houston Center
05:29PM 30.5103 -98.4419 287° West 396 456 38,000  Level Houston Center
05:30PM 30.5436 -98.5669 287° West 413 475 38,000  Level Houston Center
05:31PM 30.5786 -98.6972 288° West 418 481 38,000  Level Houston Center
05:32PM 30.6189 -98.8397 287° West 424 488 38,000  Level Houston Center
05:33PM 30.6519 -98.9650 288° West 424 488 38,000  Level Houston Center
05:34PM 30.6886 -99.0931 290° West 424 488 38,000  Level Houston Center
05:35PM 30.7275 -99.2192 285° West 424 488 38,000  Level Houston Center
05:36PM 30.7578 -99.3467 299° West 419 482 38,000  Level Houston Center
05:37PM 30.8175 -99.4697 307° West 419 482 38,000  Level Houston Center
05:38PM 30.8767 -99.5614 310° West 434 499 38,000  Level Houston Center
05:39PM 30.9711 -99.6919 308° West 443 510 38,000  Level Houston Center
05:42PM 31.1500 -99.9594 308° West 444 511 38,000  Level Fort Worth Center
05:43PM 31.2247 -100.0733 309° West 444 511 38,000  Level Fort Worth Center
05:44PM 31.2997 -100.1825 308° West 444 511 38,000  Level Fort Worth Center
05:45PM 31.3764 -100.2967 308° West 444 511 38,000  Level Fort Worth Center
05:46PM 31.4511 -100.4086 307° West 444 511 38,000  Level Fort Worth Center
05:47PM 31.5233 -100.5231 309° West 444 511 38,000  Level Fort Worth Center
05:48PM 31.6061 -100.6428 308° West 444 511 38,000  Level Fort Worth Center
05:49PM 31.6822 -100.7578 308° West 439 505 38,000  Level Fort Worth Center
05:50PM 31.7586 -100.8731 308° West 439 505 38,000  Level Fort Worth Center
05:51PM 31.8347 -100.9883 307° West 445 512 38,000  Level Fort Worth Center
05:52PM 31.9106 -101.1064 307° West 445 512 38,000  Level Fort Worth Center
05:53PM 31.9844 -101.2219 308° West 445 512 38,000  Level Fort Worth Center
05:54PM 32.0600 -101.3378 308° West 445 512 38,000  Level Fort Worth Center
05:55PM 32.1358 -101.4539 305° West 445 512 38,000  Level Fort Worth Center
05:56PM 32.2031 -101.5675 307° West 453 521 38,000  Level Fort Worth Center
05:57PM 32.2764 -101.6836 308° West 453 521 38,000  Level Fort Worth Center
05:58PM 32.3536 -101.8006 307° West 453 521 38,000  Level Fort Worth Center
05:59PM 32.4289 -101.9197 308° West 448 516 38,000  Level Fort Worth Center
06:00PM 32.5039 -102.0344 308° West 448 516 38,000  Level Fort Worth Center
06:01PM 32.5831 -102.1542 306° West 454 522 38,000  Level Fort Worth Center
06:02PM 32.6597 -102.2792 308° West 460 529 38,000  Level Fort Worth Center
06:03PM 32.7383 -102.3969 305° West 465 535 38,000  Level Fort Worth Center
06:04PM 32.8108 -102.5197 307° West 465 535 38,000  Level Fort Worth Center
06:05PM 32.8872 -102.6403 307° West 465 535 38,000  Level Fort Worth Center
06:06PM 32.9617 -102.7561 306° West 460 529 38,000  Level Fort Worth Center
06:07PM 33.0378 -102.8797 306° West 460 529 38,000  Level Fort Worth Center
06:08PM 33.1117 -103.0006 307° West 460 529 38,000  Level Fort Worth Center
06:10PM 33.2756 -103.2636 305° West 448 516 38,000  Level Albuquerque Center
06:11PM 33.3467 -103.3869 308° West 448 516 38,000  Level Albuquerque Center
06:12PM 33.4167 -103.4931 305° West 448 516 38,000  Level Albuquerque Center
06:13PM 33.4917 -103.6217 306° West 464 534 38,000  Level Albuquerque Center
06:14PM 33.5708 -103.7550 307° West 459 528 38,000  Level Albuquerque Center
06:15PM 33.6389 -103.8644 305° West 459 528 38,000  Level Albuquerque Center
06:16PM 33.7178 -103.9983 306° West 459 528 38,000  Level Albuquerque Center
06:17PM 33.7922 -104.1203 306° West 459 528 38,000  Level Albuquerque Center
06:18PM 33.8664 -104.2450 311° West 459 528 38,000  Level Albuquerque Center
06:19PM 33.9464 -104.3572 315° West 459 528 38,000  Level Albuquerque Center
06:20PM 34.0261 -104.4544 315° West 459 528 38,000  Level Albuquerque Center
06:21PM 34.1119 -104.5594 310° West 448 516 38,000  Level Albuquerque Center
06:22PM 34.1939 -104.6772 304° West 454 522 38,000  Level Albuquerque Center
06:23PM 34.2636 -104.8031 303° West 454 522 38,000  Level Albuquerque Center
06:24PM 34.3331 -104.9317 303° West 448 516 38,000 -360 Level Albuquerque Center
06:25PM 34.4067 -105.0706 303° West 448 516 37,300 -1,740 Descending Albuquerque Center
06:26PM 34.4736 -105.1969 304° West 451 519 34,600 -2,700 Descending Albuquerque Center
06:27PM 34.5406 -105.3189 302° West 445 512 32,000 -2,700 Descending Albuquerque Center
06:28PM 34.6053 -105.4458 302° West 440 506 29,300 -2,700 Descending Albuquerque Center
06:29PM 34.6739 -105.5781 304° West 456 525 26,600 -2,820 Descending Albuquerque Center
06:30PM 34.7403 -105.6981 303° West 445 512 23,700 -2,880 Descending Albuquerque Center
06:31PM 34.8025 -105.8158 301° West 433 498 20,900 -2,460 Descending Albuquerque Center
06:32PM 34.8539 -105.9186 304° West 407 468 18,800 -2,040 Descending Albuquerque Center
06:33PM 34.9114 -106.0214 266° West 389 448 16,900 -1,920 Descending Albuquerque Center
06:34PM 34.9044 -106.1456 262° West 315 362 14,900 -1,680 Descending Albuquerque Center
06:35PM 34.8947 -106.2267 264° West 305 351 13,600 -1,740 Descending Albuquerque Center
06:36PM 34.8833 -106.3483 267° West 302 348 11,400 -1,740 Descending Albuquerque Center
06:37PM 34.8797 -106.4422 313° West 272 313 10,000 -1,080 Descending Albuquerque Center
06:38PM 34.9178 -106.4922 359° North 242 278 9,300 -1,020 Descending Albuquerque Center
06:39PM 34.9803 -106.4942 344° North 206 237 8,000 -1,200 Descending Albuquerque Center
06:40PM 35.0222 -106.5089 296° West 164 189 6,900 -1,140 Descending Albuquerque Center
06:41PM 35.0414 -106.5569 296° West 158 182 5,800 -1,140 Descending Albuquerque Center